Baltimore, Maryland
Traffic Map
Current Weather Conditions
Baltimore, Maryland
Overcast Light Rain
Overcast
60°
Feels Like: 60°
Wind Chill: 60° Ceiling: 2700
Heat Index: 60° Visibility: 10mi
Dew Point: 57° Wind: 3mph
Humidity: 90% Direction: 360° (N)
Pressure: 30.18in Gusts: 0mph
Raw Report DataKBWI 230854Z 36003KT 10SM -RA BKN027 OVC065 16/14 A3018 RMK AO2 SLP220 P0000 60002 T01560139 58001
Traffic Incident Summary
Active as of:
Severity:
Category:
InformationThere was an issue retrieving the traffic information for this location. Please try a different location or try again shortly.
Advertisements